sensor_id;sensor_type;location;lat;lon;timestamp;noise_LAeq;noise_LA_min;noise_LA_max;noise_LA01;noise_LA95
53702;Laerm;39594;52.194;9.886;2023-04-15T00:00:27;5.00;5.00;5.00;;
53702;Laerm;39594;52.194;9.886;2023-04-15T00:02:53;5.00;5.00;5.00;;
53702;Laerm;39594;52.194;9.886;2023-04-15T00:05:19;5.00;5.00;5.00;;
53702;Laerm;39594;52.194;9.886;2023-04-15T00:07:44;89.12;5.00;111.65;;
53702;Laerm;39594;52.194;9.886;2023-04-15T00:10:11;92.77;5.00;111.98;;
53702;Laerm;39594;52.194;9.886;2023-04-15T00:12:36;92.98;5.00;112.54;;
53702;Laerm;39594;52.194;9.886;2023-04-15T00:15:01;5.00;5.00;5.00;;
53702;Laerm;39594;52.194;9.886;2023-04-15T00:17:27;5.00;5.00;5.00;;
53702;Laerm;39594;52.194;9.886;2023-04-15T00:19:52;5.00;5.00;5.00;;
53702;Laerm;39594;52.194;9.886;2023-04-15T00:22:18;5.00;5.00;5.00;;
53702;Laerm;39594;52.194;9.886;2023-04-15T00:24:43;5.00;5.00;5.00;;
53702;Laerm;39594;52.194;9.886;2023-04-15T00:27:08;5.00;5.00;5.00;;
53702;Laerm;39594;52.194;9.886;2023-04-15T00:29:34;5.00;5.00;5.00;;
53702;Laerm;39594;52.194;9.886;2023-04-15T00:31:59;5.00;5.00;5.00;;
53702;Laerm;39594;52.194;9.886;2023-04-15T00:34:27;5.00;5.00;5.00;;
53702;Laerm;39594;52.194;9.886;2023-04-15T00:36:52;5.00;5.00;5.00;;
53702;Laerm;39594;52.194;9.886;2023-04-15T00:39:21;5.00;5.00;5.00;;
53702;Laerm;39594;52.194;9.886;2023-04-15T00:41:49;5.00;5.00;5.00;;
53702;Laerm;39594;52.194;9.886;2023-04-15T00:44:14;5.00;5.00;5.00;;
53702;Laerm;39594;52.194;9.886;2023-04-15T00:46:39;5.00;5.00;5.00;;
53702;Laerm;39594;52.194;9.886;2023-04-15T00:49:11;5.00;5.00;5.00;;
53702;Laerm;39594;52.194;9.886;2023-04-15T00:51:37;5.00;5.00;5.00;;
53702;Laerm;39594;52.194;9.886;2023-04-15T00:54:02;5.00;5.00;5.00;;
53702;Laerm;39594;52.194;9.886;2023-04-15T00:56:28;5.00;5.00;5.00;;
53702;Laerm;39594;52.194;9.886;2023-04-15T00:58:53;5.00;5.00;5.00;;
53702;Laerm;39594;52.194;9.886;2023-04-15T01:01:22;5.00;5.00;5.00;;
53702;Laerm;39594;52.194;9.886;2023-04-15T01:03:50;5.00;5.00;5.00;;
53702;Laerm;39594;52.194;9.886;2023-04-15T01:06:16;5.00;5.00;5.00;;
53702;Laerm;39594;52.194;9.886;2023-04-15T01:08:41;5.00;5.00;5.00;;
53702;Laerm;39594;52.194;9.886;2023-04-15T01:11:07;5.00;5.00;5.00;;
53702;Laerm;39594;52.194;9.886;2023-04-15T01:13:32;5.00;5.00;5.00;;
53702;Laerm;39594;52.194;9.886;2023-04-15T01:15:58;5.00;5.00;5.00;;
53702;Laerm;39594;52.194;9.886;2023-04-15T01:18:23;90.63;5.00;111.86;;
53702;Laerm;39594;52.194;9.886;2023-04-15T01:20:48;82.88;5.00;108.54;;
53702;Laerm;39594;52.194;9.886;2023-04-15T01:23:14;77.30;5.00;103.90;;
53702;Laerm;39594;52.194;9.886;2023-04-15T01:25:40;80.85;5.00;109.27;;
53702;Laerm;39594;52.194;9.886;2023-04-15T01:28:10;73.92;5.00;102.13;;
53702;Laerm;39594;52.194;9.886;2023-04-15T01:30:35;77.87;5.00;104.86;;
53702;Laerm;39594;52.194;9.886;2023-04-15T01:33:01;87.06;5.00;112.72;;
53702;Laerm;39594;52.194;9.886;2023-04-15T01:35:26;100.44;5.00;115.91;;
53702;Laerm;39594;52.194;9.886;2023-04-15T01:37:52;100.27;5.00;114.97;;
53702;Laerm;39594;52.194;9.886;2023-04-15T01:40:19;93.40;5.00;113.48;;
53702;Laerm;39594;52.194;9.886;2023-04-15T01:42:47;96.59;5.00;114.04;;
53702;Laerm;39594;52.194;9.886;2023-04-15T01:45:13;91.72;5.00;111.58;;
53702;Laerm;39594;52.194;9.886;2023-04-15T01:47:38;102.66;5.00;115.81;;
53702;Laerm;39594;52.194;9.886;2023-04-15T01:50:03;75.02;5.00;103.85;;
53702;Laerm;39594;52.194;9.886;2023-04-15T01:52:29;5.00;5.00;5.00;;
53702;Laerm;39594;52.194;9.886;2023-04-15T01:54:54;5.00;5.00;5.00;;
53702;Laerm;39594;52.194;9.886;2023-04-15T01:57:20;5.00;5.00;5.00;;
53702;Laerm;39594;52.194;9.886;2023-04-15T01:59:45;5.00;5.00;5.00;;
53702;Laerm;39594;52.194;9.886;2023-04-15T02:02:11;5.00;5.00;5.00;;
53702;Laerm;39594;52.194;9.886;2023-04-15T02:04:36;5.00;5.00;5.00;;
53702;Laerm;39594;52.194;9.886;2023-04-15T02:07:02;5.00;5.00;5.00;;
53702;Laerm;39594;52.194;9.886;2023-04-15T02:09:27;5.00;5.00;5.00;;
53702;Laerm;39594;52.194;9.886;2023-04-15T02:11:52;5.00;5.00;5.00;;
53702;Laerm;39594;52.194;9.886;2023-04-15T02:14:21;5.00;5.00;5.00;;
53702;Laerm;39594;52.194;9.886;2023-04-15T02:16:46;5.00;5.00;5.00;;
53702;Laerm;39594;52.194;9.886;2023-04-15T02:19:11;5.00;5.00;5.00;;
53702;Laerm;39594;52.194;9.886;2023-04-15T02:21:37;5.00;5.00;5.00;;
53702;Laerm;39594;52.194;9.886;2023-04-15T02:24:03;5.00;5.00;5.00;;
53702;Laerm;39594;52.194;9.886;2023-04-15T02:26:29;5.00;5.00;5.00;;
53702;Laerm;39594;52.194;9.886;2023-04-15T02:28:56;5.00;5.00;5.00;;
53702;Laerm;39594;52.194;9.886;2023-04-15T02:31:21;5.00;5.00;5.00;;
53702;Laerm;39594;52.194;9.886;2023-04-15T02:33:47;5.00;5.00;5.00;;
53702;Laerm;39594;52.194;9.886;2023-04-15T02:36:12;5.00;5.00;5.00;;
53702;Laerm;39594;52.194;9.886;2023-04-15T02:38:37;5.00;5.00;5.00;;
53702;Laerm;39594;52.194;9.886;2023-04-15T02:41:04;5.00;5.00;5.00;;
53702;Laerm;39594;52.194;9.886;2023-04-15T02:43:30;5.00;5.00;5.00;;
53702;Laerm;39594;52.194;9.886;2023-04-15T02:45:55;5.00;5.00;5.00;;
53702;Laerm;39594;52.194;9.886;2023-04-15T02:48:21;5.00;5.00;5.00;;
53702;Laerm;39594;52.194;9.886;2023-04-15T02:50:46;5.00;5.00;5.00;;
53702;Laerm;39594;52.194;9.886;2023-04-15T02:53:12;5.00;5.00;5.00;;
53702;Laerm;39594;52.194;9.886;2023-04-15T02:55:38;5.00;5.00;5.00;;
53702;Laerm;39594;52.194;9.886;2023-04-15T02:58:03;5.00;5.00;5.00;;
53702;Laerm;39594;52.194;9.886;2023-04-15T03:00:31;5.00;5.00;5.00;;
53702;Laerm;39594;52.194;9.886;2023-04-15T03:02:57;5.00;5.00;5.00;;
53702;Laerm;39594;52.194;9.886;2023-04-15T03:05:23;5.00;5.00;5.00;;
53702;Laerm;39594;52.194;9.886;2023-04-15T03:07:49;5.00;5.00;5.00;;
53702;Laerm;39594;52.194;9.886;2023-04-15T03:10:15;5.00;5.00;5.00;;
53702;Laerm;39594;52.194;9.886;2023-04-15T03:12:40;5.00;5.00;5.00;;
53702;Laerm;39594;52.194;9.886;2023-04-15T03:15:05;5.00;5.00;5.00;;
53702;Laerm;39594;52.194;9.886;2023-04-15T03:17:31;5.00;5.00;5.00;;
53702;Laerm;39594;52.194;9.886;2023-04-15T03:19:56;5.00;5.00;5.00;;
53702;Laerm;39594;52.194;9.886;2023-04-15T03:22:21;5.00;5.00;5.00;;
53702;Laerm;39594;52.194;9.886;2023-04-15T03:24:47;5.00;5.00;5.00;;
53702;Laerm;39594;52.194;9.886;2023-04-15T03:27:12;5.00;5.00;5.00;;
53702;Laerm;39594;52.194;9.886;2023-04-15T03:29:37;5.00;5.00;5.00;;
53702;Laerm;39594;52.194;9.886;2023-04-15T03:32:03;5.00;5.00;5.00;;
53702;Laerm;39594;52.194;9.886;2023-04-15T03:34:28;5.00;5.00;5.00;;
53702;Laerm;39594;52.194;9.886;2023-04-15T03:36:53;5.00;5.00;5.00;;
53702;Laerm;39594;52.194;9.886;2023-04-15T03:39:20;5.00;5.00;5.00;;
53702;Laerm;39594;52.194;9.886;2023-04-15T03:41:45;5.00;5.00;5.00;;
53702;Laerm;39594;52.194;9.886;2023-04-15T03:44:10;5.00;5.00;5.00;;
53702;Laerm;39594;52.194;9.886;2023-04-15T03:46:36;5.00;5.00;5.00;;
53702;Laerm;39594;52.194;9.886;2023-04-15T03:49:01;5.00;5.00;5.00;;
53702;Laerm;39594;52.194;9.886;2023-04-15T03:51:26;5.00;5.00;5.00;;
53702;Laerm;39594;52.194;9.886;2023-04-15T03:53:52;5.00;5.00;5.00;;
53702;Laerm;39594;52.194;9.886;2023-04-15T03:56:17;5.00;5.00;5.00;;
53702;Laerm;39594;52.194;9.886;2023-04-15T03:58:42;5.00;5.00;5.00;;
53702;Laerm;39594;52.194;9.886;2023-04-15T04:01:07;5.00;5.00;5.00;;
53702;Laerm;39594;52.194;9.886;2023-04-15T04:03:33;5.00;5.00;5.00;;
53702;Laerm;39594;52.194;9.886;2023-04-15T04:05:58;5.00;5.00;5.00;;
53702;Laerm;39594;52.194;9.886;2023-04-15T04:08:23;5.00;5.00;5.00;;
53702;Laerm;39594;52.194;9.886;2023-04-15T04:10:51;5.00;5.00;5.00;;
53702;Laerm;39594;52.194;9.886;2023-04-15T04:13:16;5.00;5.00;5.00;;
53702;Laerm;39594;52.194;9.886;2023-04-15T04:15:42;5.00;5.00;5.00;;
53702;Laerm;39594;52.194;9.886;2023-04-15T04:18:07;5.00;5.00;5.00;;
53702;Laerm;39594;52.194;9.886;2023-04-15T04:20:32;5.00;5.00;5.00;;
53702;Laerm;39594;52.194;9.886;2023-04-15T04:23:00;5.00;5.00;5.00;;
53702;Laerm;39594;52.194;9.886;2023-04-15T04:25:26;5.00;5.00;5.00;;
53702;Laerm;39594;52.194;9.886;2023-04-15T04:27:51;5.00;5.00;5.00;;
53702;Laerm;39594;52.194;9.886;2023-04-15T04:30:16;5.00;5.00;5.00;;
53702;Laerm;39594;52.194;9.886;2023-04-15T04:32:45;5.00;5.00;5.00;;
53702;Laerm;39594;52.194;9.886;2023-04-15T04:35:13;5.00;5.00;5.00;;
53702;Laerm;39594;52.194;9.886;2023-04-15T04:37:38;5.00;5.00;5.00;;
53702;Laerm;39594;52.194;9.886;2023-04-15T04:40:04;5.00;5.00;5.00;;
53702;Laerm;39594;52.194;9.886;2023-04-15T04:42:30;5.00;5.00;5.00;;
53702;Laerm;39594;52.194;9.886;2023-04-15T04:44:55;5.00;5.00;5.00;;
53702;Laerm;39594;52.194;9.886;2023-04-15T04:47:20;5.00;5.00;5.00;;
53702;Laerm;39594;52.194;9.886;2023-04-15T04:49:45;5.00;5.00;5.00;;
53702;Laerm;39594;52.194;9.886;2023-04-15T04:52:11;5.00;5.00;5.00;;
53702;Laerm;39594;52.194;9.886;2023-04-15T04:54:36;5.00;5.00;5.00;;
53702;Laerm;39594;52.194;9.886;2023-04-15T04:57:02;5.00;5.00;5.00;;
53702;Laerm;39594;52.194;9.886;2023-04-15T04:59:27;5.00;5.00;5.00;;
53702;Laerm;39594;52.194;9.886;2023-04-15T05:01:52;5.00;5.00;5.00;;
53702;Laerm;39594;52.194;9.886;2023-04-15T05:04:18;5.00;5.00;5.00;;
53702;Laerm;39594;52.194;9.886;2023-04-15T05:06:43;5.00;5.00;5.00;;
53702;Laerm;39594;52.194;9.886;2023-04-15T05:09:08;5.00;5.00;5.00;;
53702;Laerm;39594;52.194;9.886;2023-04-15T05:11:34;5.00;5.00;5.00;;
53702;Laerm;39594;52.194;9.886;2023-04-15T05:13:59;5.00;5.00;5.00;;
53702;Laerm;39594;52.194;9.886;2023-04-15T05:16:26;5.00;5.00;5.00;;
53702;Laerm;39594;52.194;9.886;2023-04-15T05:18:51;5.00;5.00;5.00;;
53702;Laerm;39594;52.194;9.886;2023-04-15T05:21:17;5.00;5.00;5.00;;
53702;Laerm;39594;52.194;9.886;2023-04-15T05:23:42;5.00;5.00;5.00;;
53702;Laerm;39594;52.194;9.886;2023-04-15T05:26:07;5.00;5.00;5.00;;
53702;Laerm;39594;52.194;9.886;2023-04-15T05:28:33;98.94;5.00;114.75;;
53702;Laerm;39594;52.194;9.886;2023-04-15T05:30:58;99.88;5.00;115.73;;
53702;Laerm;39594;52.194;9.886;2023-04-15T05:33:23;82.15;5.00;108.14;;
53702;Laerm;39594;52.194;9.886;2023-04-15T05:35:48;94.30;5.00;114.48;;
53702;Laerm;39594;52.194;9.886;2023-04-15T05:38:14;5.00;5.00;5.00;;
53702;Laerm;39594;52.194;9.886;2023-04-15T05:40:39;5.00;5.00;5.00;;
53702;Laerm;39594;52.194;9.886;2023-04-15T05:43:04;5.00;5.00;5.00;;
53702;Laerm;39594;52.194;9.886;2023-04-15T05:45:30;5.00;5.00;5.00;;
53702;Laerm;39594;52.194;9.886;2023-04-15T05:47:55;5.00;5.00;5.00;;
53702;Laerm;39594;52.194;9.886;2023-04-15T05:50:24;5.00;5.00;5.00;;
53702;Laerm;39594;52.194;9.886;2023-04-15T05:52:55;5.00;5.00;5.00;;
53702;Laerm;39594;52.194;9.886;2023-04-15T05:55:20;5.00;5.00;5.00;;
53702;Laerm;39594;52.194;9.886;2023-04-15T05:57:46;5.00;5.00;5.00;;
53702;Laerm;39594;52.194;9.886;2023-04-15T06:00:11;5.00;5.00;5.00;;
53702;Laerm;39594;52.194;9.886;2023-04-15T06:02:37;5.00;5.00;5.00;;
53702;Laerm;39594;52.194;9.886;2023-04-15T06:05:02;5.00;5.00;5.00;;
53702;Laerm;39594;52.194;9.886;2023-04-15T06:07:27;5.00;5.00;5.00;;
53702;Laerm;39594;52.194;9.886;2023-04-15T06:09:53;5.00;5.00;5.00;;
53702;Laerm;39594;52.194;9.886;2023-04-15T06:12:18;5.00;5.00;5.00;;
53702;Laerm;39594;52.194;9.886;2023-04-15T06:14:43;82.42;5.00;110.74;;
53702;Laerm;39594;52.194;9.886;2023-04-15T06:17:09;63.59;40.80;73.92;;
53702;Laerm;39594;52.194;9.886;2023-04-15T06:19:34;63.06;39.92;77.38;;
53702;Laerm;39594;52.194;9.886;2023-04-15T06:22:02;64.07;38.02;76.35;;
53702;Laerm;39594;52.194;9.886;2023-04-15T06:24:28;62.89;40.03;74.95;;
53702;Laerm;39594;52.194;9.886;2023-04-15T06:26:53;64.25;42.71;77.71;;
53702;Laerm;39594;52.194;9.886;2023-04-15T06:29:18;64.05;39.58;79.07;;
53702;Laerm;39594;52.194;9.886;2023-04-15T06:31:45;63.74;40.18;74.14;;
53702;Laerm;39594;52.194;9.886;2023-04-15T06:34:14;61.30;39.58;75.51;;
53702;Laerm;39594;52.194;9.886;2023-04-15T06:36:48;62.70;40.62;75.82;;
53702;Laerm;39594;52.194;9.886;2023-04-15T06:39:13;60.22;39.92;80.61;;
53702;Laerm;39594;52.194;9.886;2023-04-15T06:41:39;87.33;5.00;110.89;;
53702;Laerm;39594;52.194;9.886;2023-04-15T06:44:05;32.45;5.00;68.55;;
53702;Laerm;39594;52.194;9.886;2023-04-15T06:46:30;5.00;5.00;5.00;;
53702;Laerm;39594;52.194;9.886;2023-04-15T06:48:56;5.00;5.00;5.00;;
53702;Laerm;39594;52.194;9.886;2023-04-15T06:51:24;5.00;5.00;5.00;;
53702;Laerm;39594;52.194;9.886;2023-04-15T06:53:49;5.00;5.00;5.00;;
53702;Laerm;39594;52.194;9.886;2023-04-15T06:56:14;5.00;5.00;5.00;;
53702;Laerm;39594;52.194;9.886;2023-04-15T06:58:39;5.00;5.00;5.00;;
53702;Laerm;39594;52.194;9.886;2023-04-15T07:01:05;5.00;5.00;5.00;;
53702;Laerm;39594;52.194;9.886;2023-04-15T07:03:30;5.00;5.00;5.00;;
53702;Laerm;39594;52.194;9.886;2023-04-15T07:05:56;5.00;5.00;5.00;;
53702;Laerm;39594;52.194;9.886;2023-04-15T07:08:21;5.00;5.00;5.00;;
53702;Laerm;39594;52.194;9.886;2023-04-15T07:10:47;5.00;5.00;5.00;;
53702;Laerm;39594;52.194;9.886;2023-04-15T07:13:12;5.00;5.00;5.00;;
53702;Laerm;39594;52.194;9.886;2023-04-15T07:15:37;5.00;5.00;5.00;;
53702;Laerm;39594;52.194;9.886;2023-04-15T07:18:02;5.00;5.00;5.00;;
53702;Laerm;39594;52.194;9.886;2023-04-15T07:20:28;5.00;5.00;5.00;;
53702;Laerm;39594;52.194;9.886;2023-04-15T07:22:53;5.00;5.00;5.00;;
53702;Laerm;39594;52.194;9.886;2023-04-15T07:25:19;5.00;5.00;5.00;;
53702;Laerm;39594;52.194;9.886;2023-04-15T07:27:44;5.00;5.00;5.00;;
53702;Laerm;39594;52.194;9.886;2023-04-15T07:30:09;5.00;5.00;5.00;;
53702;Laerm;39594;52.194;9.886;2023-04-15T07:32:35;5.00;5.00;5.00;;
53702;Laerm;39594;52.194;9.886;2023-04-15T07:35:00;5.00;5.00;5.00;;
53702;Laerm;39594;52.194;9.886;2023-04-15T07:37:27;5.00;5.00;5.00;;
53702;Laerm;39594;52.194;9.886;2023-04-15T07:39:53;5.00;5.00;5.00;;
53702;Laerm;39594;52.194;9.886;2023-04-15T07:42:19;5.00;5.00;5.00;;
53702;Laerm;39594;52.194;9.886;2023-04-15T07:44:44;5.00;5.00;5.00;;
53702;Laerm;39594;52.194;9.886;2023-04-15T07:47:10;5.00;5.00;5.00;;
53702;Laerm;39594;52.194;9.886;2023-04-15T07:49:35;5.00;5.00;5.00;;
53702;Laerm;39594;52.194;9.886;2023-04-15T07:52:01;5.00;5.00;5.00;;
53702;Laerm;39594;52.194;9.886;2023-04-15T07:54:26;5.00;5.00;5.00;;
53702;Laerm;39594;52.194;9.886;2023-04-15T07:56:51;5.00;5.00;5.00;;
53702;Laerm;39594;52.194;9.886;2023-04-15T07:59:17;5.00;5.00;5.00;;
53702;Laerm;39594;52.194;9.886;2023-04-15T08:01:42;5.00;5.00;5.00;;
53702;Laerm;39594;52.194;9.886;2023-04-15T08:04:08;5.00;5.00;5.00;;
53702;Laerm;39594;52.194;9.886;2023-04-15T08:06:33;5.00;5.00;5.00;;
53702;Laerm;39594;52.194;9.886;2023-04-15T08:08:58;5.00;5.00;5.00;;
53702;Laerm;39594;52.194;9.886;2023-04-15T08:11:24;5.00;5.00;5.00;;
53702;Laerm;39594;52.194;9.886;2023-04-15T08:13:50;5.00;5.00;5.00;;
53702;Laerm;39594;52.194;9.886;2023-04-15T08:16:19;5.00;5.00;5.00;;
53702;Laerm;39594;52.194;9.886;2023-04-15T08:18:45;5.00;5.00;5.00;;
53702;Laerm;39594;52.194;9.886;2023-04-15T08:21:11;5.00;5.00;5.00;;
53702;Laerm;39594;52.194;9.886;2023-04-15T08:23:37;90.80;5.00;112.13;;
53702;Laerm;39594;52.194;9.886;2023-04-15T08:26:03;93.85;5.00;111.66;;
53702;Laerm;39594;52.194;9.886;2023-04-15T08:28:31;5.00;5.00;5.00;;
53702;Laerm;39594;52.194;9.886;2023-04-15T08:30:56;5.00;5.00;5.00;;
53702;Laerm;39594;52.194;9.886;2023-04-15T08:33:22;5.00;5.00;5.00;;
53702;Laerm;39594;52.194;9.886;2023-04-15T08:35:47;5.00;5.00;5.00;;
53702;Laerm;39594;52.194;9.886;2023-04-15T08:38:13;5.00;5.00;5.00;;
53702;Laerm;39594;52.194;9.886;2023-04-15T08:40:41;5.00;5.00;5.00;;
53702;Laerm;39594;52.194;9.886;2023-04-15T08:43:08;5.00;5.00;5.00;;
53702;Laerm;39594;52.194;9.886;2023-04-15T08:45:34;5.00;5.00;5.00;;
53702;Laerm;39594;52.194;9.886;2023-04-15T08:48:00;5.00;5.00;5.00;;
53702;Laerm;39594;52.194;9.886;2023-04-15T08:50:27;5.00;5.00;5.00;;
53702;Laerm;39594;52.194;9.886;2023-04-15T08:52:55;5.00;5.00;5.00;;
53702;Laerm;39594;52.194;9.886;2023-04-15T08:55:24;5.00;5.00;5.00;;
53702;Laerm;39594;52.194;9.886;2023-04-15T08:57:52;5.00;5.00;5.00;;
53702;Laerm;39594;52.194;9.886;2023-04-15T09:00:20;5.00;5.00;5.00;;
53702;Laerm;39594;52.194;9.886;2023-04-15T09:02:49;5.00;5.00;5.00;;
53702;Laerm;39594;52.194;9.886;2023-04-15T09:05:26;5.00;5.00;5.00;;
53702;Laerm;39594;52.194;9.886;2023-04-15T09:11:22;5.00;5.00;5.00;;
53702;Laerm;39594;52.194;9.886;2023-04-15T09:14:19;5.00;5.00;5.00;;
53702;Laerm;39594;52.194;9.886;2023-04-15T09:16:58;5.00;5.00;5.00;;
53702;Laerm;39594;52.194;9.886;2023-04-15T09:19:24;5.00;5.00;5.00;;
53702;Laerm;39594;52.194;9.886;2023-04-15T09:21:51;5.00;5.00;5.00;;
53702;Laerm;39594;52.194;9.886;2023-04-15T09:24:17;5.00;5.00;5.00;;
53702;Laerm;39594;52.194;9.886;2023-04-15T09:26:42;5.00;5.00;5.00;;
53702;Laerm;39594;52.194;9.886;2023-04-15T09:29:08;5.00;5.00;5.00;;
53702;Laerm;39594;52.194;9.886;2023-04-15T09:31:37;5.00;5.00;5.00;;
53702;Laerm;39594;52.194;9.886;2023-04-15T09:34:02;5.00;5.00;5.00;;
53702;Laerm;39594;52.194;9.886;2023-04-15T09:36:27;5.00;5.00;5.00;;
53702;Laerm;39594;52.194;9.886;2023-04-15T09:38:58;5.00;5.00;5.00;;
53702;Laerm;39594;52.194;9.886;2023-04-15T09:41:24;5.00;5.00;5.00;;
53702;Laerm;39594;52.194;9.886;2023-04-15T09:43:49;5.00;5.00;5.00;;
53702;Laerm;39594;52.194;9.886;2023-04-15T09:46:15;5.00;5.00;5.00;;
53702;Laerm;39594;52.194;9.886;2023-04-15T09:48:40;5.00;5.00;5.00;;
53702;Laerm;39594;52.194;9.886;2023-04-15T09:51:05;5.00;5.00;5.00;;
53702;Laerm;39594;52.194;9.886;2023-04-15T09:53:32;5.00;5.00;5.00;;
53702;Laerm;39594;52.194;9.886;2023-04-15T09:55:59;5.00;5.00;5.00;;
53702;Laerm;39594;52.194;9.886;2023-04-15T09:58:30;5.00;5.00;5.00;;
53702;Laerm;39594;52.194;9.886;2023-04-15T10:00:56;5.00;5.00;5.00;;
53702;Laerm;39594;52.194;9.886;2023-04-15T10:03:26;5.00;5.00;5.00;;
53702;Laerm;39594;52.194;9.886;2023-04-15T10:05:52;5.00;5.00;5.00;;
53702;Laerm;39594;52.194;9.886;2023-04-15T10:08:19;5.00;5.00;5.00;;
53702;Laerm;39594;52.194;9.886;2023-04-15T10:10:46;5.00;5.00;5.00;;
53702;Laerm;39594;52.194;9.886;2023-04-15T10:13:16;5.00;5.00;5.00;;
53702;Laerm;39594;52.194;9.886;2023-04-15T10:15:42;5.00;5.00;5.00;;
53702;Laerm;39594;52.194;9.886;2023-04-15T10:18:08;5.00;5.00;5.00;;
53702;Laerm;39594;52.194;9.886;2023-04-15T10:20:34;5.00;5.00;5.00;;
53702;Laerm;39594;52.194;9.886;2023-04-15T10:22:59;5.00;5.00;5.00;;
53702;Laerm;39594;52.194;9.886;2023-04-15T10:25:25;5.00;5.00;5.00;;
53702;Laerm;39594;52.194;9.886;2023-04-15T10:27:51;5.00;5.00;5.00;;
53702;Laerm;39594;52.194;9.886;2023-04-15T10:30:16;5.00;5.00;5.00;;
53702;Laerm;39594;52.194;9.886;2023-04-15T10:32:42;5.00;5.00;5.00;;
53702;Laerm;39594;52.194;9.886;2023-04-15T10:35:08;5.00;5.00;5.00;;
53702;Laerm;39594;52.194;9.886;2023-04-15T10:37:35;5.00;5.00;5.00;;
53702;Laerm;39594;52.194;9.886;2023-04-15T10:40:10;5.00;5.00;5.00;;
53702;Laerm;39594;52.194;9.886;2023-04-15T10:42:46;5.00;5.00;5.00;;
53702;Laerm;39594;52.194;9.886;2023-04-15T10:45:14;5.00;5.00;5.00;;
53702;Laerm;39594;52.194;9.886;2023-04-15T10:47:40;5.00;5.00;5.00;;
53702;Laerm;39594;52.194;9.886;2023-04-15T10:50:07;5.00;5.00;5.00;;
53702;Laerm;39594;52.194;9.886;2023-04-15T10:52:33;5.00;5.00;5.00;;
53702;Laerm;39594;52.194;9.886;2023-04-15T10:55:22;5.00;5.00;5.00;;
53702;Laerm;39594;52.194;9.886;2023-04-15T10:57:46;5.00;5.00;5.00;;
53702;Laerm;39594;52.194;9.886;2023-04-15T11:00:15;5.00;5.00;5.00;;
53702;Laerm;39594;52.194;9.886;2023-04-15T11:05:09;5.00;5.00;5.00;;
53702;Laerm;39594;52.194;9.886;2023-04-15T11:07:56;5.00;5.00;5.00;;
53702;Laerm;39594;52.194;9.886;2023-04-15T11:12:51;5.00;5.00;5.00;;
53702;Laerm;39594;52.194;9.886;2023-04-15T11:17:57;5.00;5.00;5.00;;
53702;Laerm;39594;52.194;9.886;2023-04-15T11:20:23;5.00;5.00;5.00;;
53702;Laerm;39594;52.194;9.886;2023-04-15T11:22:52;5.00;5.00;5.00;;
53702;Laerm;39594;52.194;9.886;2023-04-15T11:25:24;5.00;5.00;5.00;;
53702;Laerm;39594;52.194;9.886;2023-04-15T11:27:53;5.00;5.00;5.00;;
53702;Laerm;39594;52.194;9.886;2023-04-15T11:30:19;5.00;5.00;5.00;;
53702;Laerm;39594;52.194;9.886;2023-04-15T11:32:47;5.00;5.00;5.00;;
53702;Laerm;39594;52.194;9.886;2023-04-15T11:35:13;5.00;5.00;5.00;;
53702;Laerm;39594;52.194;9.886;2023-04-15T11:37:38;5.00;5.00;5.00;;
53702;Laerm;39594;52.194;9.886;2023-04-15T11:40:03;5.00;5.00;5.00;;
53702;Laerm;39594;52.194;9.886;2023-04-15T11:42:30;5.00;5.00;5.00;;
53702;Laerm;39594;52.194;9.886;2023-04-15T11:45:11;5.00;5.00;5.00;;
53702;Laerm;39594;52.194;9.886;2023-04-15T11:47:37;5.00;5.00;5.00;;
53702;Laerm;39594;52.194;9.886;2023-04-15T11:52:58;5.00;5.00;5.00;;
53702;Laerm;39594;52.194;9.886;2023-04-15T11:55:25;5.00;5.00;5.00;;
53702;Laerm;39594;52.194;9.886;2023-04-15T12:00:32;5.00;5.00;5.00;;
53702;Laerm;39594;52.194;9.886;2023-04-15T12:03:10;5.00;5.00;5.00;;
53702;Laerm;39594;52.194;9.886;2023-04-15T12:08:22;5.00;5.00;5.00;;
53702;Laerm;39594;52.194;9.886;2023-04-15T12:10:48;5.00;5.00;5.00;;
53702;Laerm;39594;52.194;9.886;2023-04-15T12:13:13;5.00;5.00;5.00;;
53702;Laerm;39594;52.194;9.886;2023-04-15T12:15:38;5.00;5.00;5.00;;
53702;Laerm;39594;52.194;9.886;2023-04-15T12:18:03;5.00;5.00;5.00;;
53702;Laerm;39594;52.194;9.886;2023-04-15T12:20:29;5.00;5.00;5.00;;
53702;Laerm;39594;52.194;9.886;2023-04-15T12:23:03;5.00;5.00;5.00;;
53702;Laerm;39594;52.194;9.886;2023-04-15T12:25:35;5.00;5.00;5.00;;
53702;Laerm;39594;52.194;9.886;2023-04-15T12:28:00;5.00;5.00;5.00;;
53702;Laerm;39594;52.194;9.886;2023-04-15T12:30:25;5.00;5.00;5.00;;
53702;Laerm;39594;52.194;9.886;2023-04-15T12:32:51;5.00;5.00;5.00;;
53702;Laerm;39594;52.194;9.886;2023-04-15T12:35:16;5.00;5.00;5.00;;
53702;Laerm;39594;52.194;9.886;2023-04-15T12:37:43;5.00;5.00;5.00;;
53702;Laerm;39594;52.194;9.886;2023-04-15T12:40:08;5.00;5.00;5.00;;
53702;Laerm;39594;52.194;9.886;2023-04-15T12:42:34;5.00;5.00;5.00;;
53702;Laerm;39594;52.194;9.886;2023-04-15T12:44:59;5.00;5.00;5.00;;
53702;Laerm;39594;52.194;9.886;2023-04-15T12:47:24;5.00;5.00;5.00;;
53702;Laerm;39594;52.194;9.886;2023-04-15T12:49:50;5.00;5.00;5.00;;
53702;Laerm;39594;52.194;9.886;2023-04-15T12:52:15;5.00;5.00;5.00;;
53702;Laerm;39594;52.194;9.886;2023-04-15T12:54:40;5.00;5.00;5.00;;
53702;Laerm;39594;52.194;9.886;2023-04-15T12:57:05;5.00;5.00;5.00;;
53702;Laerm;39594;52.194;9.886;2023-04-15T12:59:31;5.00;5.00;5.00;;
53702;Laerm;39594;52.194;9.886;2023-04-15T13:01:56;5.00;5.00;5.00;;
53702;Laerm;39594;52.194;9.886;2023-04-15T13:04:22;5.00;5.00;5.00;;
53702;Laerm;39594;52.194;9.886;2023-04-15T13:06:47;5.00;5.00;5.00;;
53702;Laerm;39594;52.194;9.886;2023-04-15T13:09:13;5.00;5.00;5.00;;
53702;Laerm;39594;52.194;9.886;2023-04-15T13:11:38;5.00;5.00;5.00;;
53702;Laerm;39594;52.194;9.886;2023-04-15T13:14:04;5.00;5.00;5.00;;
53702;Laerm;39594;52.194;9.886;2023-04-15T13:16:29;5.00;5.00;5.00;;
53702;Laerm;39594;52.194;9.886;2023-04-15T13:18:55;5.00;5.00;5.00;;
53702;Laerm;39594;52.194;9.886;2023-04-15T13:21:21;5.00;5.00;5.00;;
53702;Laerm;39594;52.194;9.886;2023-04-15T13:23:47;5.00;5.00;5.00;;
53702;Laerm;39594;52.194;9.886;2023-04-15T13:26:12;5.00;5.00;5.00;;
53702;Laerm;39594;52.194;9.886;2023-04-15T13:28:37;5.00;5.00;5.00;;
53702;Laerm;39594;52.194;9.886;2023-04-15T13:31:03;5.00;5.00;5.00;;
53702;Laerm;39594;52.194;9.886;2023-04-15T13:33:28;5.00;5.00;5.00;;
53702;Laerm;39594;52.194;9.886;2023-04-15T13:35:54;5.00;5.00;5.00;;
53702;Laerm;39594;52.194;9.886;2023-04-15T13:38:19;5.00;5.00;5.00;;
53702;Laerm;39594;52.194;9.886;2023-04-15T13:40:44;5.00;5.00;5.00;;
53702;Laerm;39594;52.194;9.886;2023-04-15T13:43:13;5.00;5.00;5.00;;
53702;Laerm;39594;52.194;9.886;2023-04-15T13:45:38;5.00;5.00;5.00;;
53702;Laerm;39594;52.194;9.886;2023-04-15T13:48:03;5.00;5.00;5.00;;
53702;Laerm;39594;52.194;9.886;2023-04-15T13:50:28;5.00;5.00;5.00;;
53702;Laerm;39594;52.194;9.886;2023-04-15T13:52:54;5.00;5.00;5.00;;
53702;Laerm;39594;52.194;9.886;2023-04-15T13:55:19;88.16;5.00;111.60;;
53702;Laerm;39594;52.194;9.886;2023-04-15T13:57:44;90.03;5.00;111.43;;
53702;Laerm;39594;52.194;9.886;2023-04-15T14:00:10;5.00;5.00;5.00;;
53702;Laerm;39594;52.194;9.886;2023-04-15T14:02:35;5.00;5.00;5.00;;
53702;Laerm;39594;52.194;9.886;2023-04-15T14:05:01;5.00;5.00;5.00;;
53702;Laerm;39594;52.194;9.886;2023-04-15T14:07:27;5.00;5.00;5.00;;
53702;Laerm;39594;52.194;9.886;2023-04-15T14:09:52;5.00;5.00;5.00;;
53702;Laerm;39594;52.194;9.886;2023-04-15T14:12:18;5.00;5.00;5.00;;
53702;Laerm;39594;52.194;9.886;2023-04-15T14:14:44;5.00;5.00;5.00;;
53702;Laerm;39594;52.194;9.886;2023-04-15T14:17:09;5.00;5.00;5.00;;
53702;Laerm;39594;52.194;9.886;2023-04-15T14:19:35;5.00;5.00;5.00;;
53702;Laerm;39594;52.194;9.886;2023-04-15T14:22:00;77.10;5.00;109.76;;
53702;Laerm;39594;52.194;9.886;2023-04-15T14:24:25;90.46;5.00;111.84;;
53702;Laerm;39594;52.194;9.886;2023-04-15T14:26:52;81.01;5.00;109.08;;
53702;Laerm;39594;52.194;9.886;2023-04-15T14:29:17;81.81;5.00;110.65;;